Time,TemperatureF,DewpointF,PressureIn,WindDirection,WindDirectionDegrees,WindSpeedMPH,WindSpeedGustMPH,Humidity,HourlyPrecipIn,Conditions,Clouds,dailyrainin,SoftwareType,DateUTC
2013-10-20 00:01:00,48.5,41.9,29.89,ESE,113,0.0,1.0,78,0.00,,,0.00,WUHU216HW,2013-10-20 04:01:00,
2013-10-20 00:02:00,48.5,41.9,29.89,ESE,113,0.0,1.0,78,0.00,,,0.00,WUHU216HW,2013-10-20 04:02:00,
2013-10-20 00:07:00,48.5,41.9,29.89,SSE,158,0.0,12.0,78,0.00,,,0.00,WUHU216HW,2013-10-20 04:07:00,
2013-10-20 00:12:00,48.5,41.9,29.89,South,180,4.0,12.0,78,0.00,,,0.00,WUHU216HW,2013-10-20 04:12:00,
2013-10-20 00:17:00,48.3,42.0,29.89,South,180,0.0,4.0,79,0.00,,,0.00,WUHU216HW,2013-10-20 04:17:00,
2013-10-20 00:22:00,48.3,42.0,29.89,SSE,158,0.0,0.0,79,0.00,,,0.00,WUHU216HW,2013-10-20 04:22:00,
2013-10-20 00:27:00,48.3,42.0,29.88,South,180,0.0,0.0,79,0.00,,,0.00,WUHU216HW,2013-10-20 04:27:00,
2013-10-20 00:32:00,48.3,42.0,29.88,South,180,0.0,0.0,79,0.00,,,0.00,WUHU216HW,2013-10-20 04:32:00,
2013-10-20 00:37:00,48.2,41.9,29.87,South,180,0.0,0.0,79,0.00,,,0.00,WUHU216HW,2013-10-20 04:37:00,
2013-10-20 00:42:00,48.0,41.7,29.87,ESE,113,0.0,0.0,79,0.00,,,0.00,WUHU216HW,2013-10-20 04:42:00,
2013-10-20 00:47:00,48.0,42.0,29.87,ESE,113,0.0,0.0,80,0.00,,,0.00,WUHU216HW,2013-10-20 04:47:00,
2013-10-20 00:52:00,48.0,42.0,29.87,SSW,203,0.0,0.0,80,0.00,,,0.00,WUHU216HW,2013-10-20 04:52:00,
2013-10-20 00:57:00,47.8,41.9,29.87,SSW,203,0.0,0.0,80,0.00,,,0.00,WUHU216HW,2013-10-20 04:57:00,
2013-10-20 01:02:00,47.8,42.2,29.87,SSW,203,0.0,0.0,81,0.00,,,0.00,WUHU216HW,2013-10-20 05:02:00,
2013-10-20 01:07:00,47.8,42.2,29.87,SSW,203,0.0,0.0,81,0.00,,,0.00,WUHU216HW,2013-10-20 05:07:00,
2013-10-20 01:13:00,47.6,41.7,29.87,SE,135,0.0,0.0,80,0.00,,,0.00,WUHU216HW,2013-10-20 05:13:00,
2013-10-20 01:18:00,47.4,41.6,29.87,East,90,0.0,0.0,80,0.00,,,0.00,WUHU216HW,2013-10-20 05:18:00,
2013-10-20 01:23:00,47.3,41.4,29.87,SSW,203,1.0,1.0,80,0.00,,,0.00,WUHU216HW,2013-10-20 05:23:00,
2013-10-20 01:28:00,47.1,41.5,29.87,NNE,23,0.0,1.0,81,0.00,,,0.00,WUHU216HW,2013-10-20 05:28:00,
2013-10-20 01:33:00,47.1,41.5,29.87,NNW,338,0.0,0.0,81,0.00,,,0.00,WUHU216HW,2013-10-20 05:33:00,
2013-10-20 01:38:00,47.1,41.5,29.87,South,180,0.0,5.0,81,0.00,,,0.00,WUHU216HW,2013-10-20 05:38:00,
2013-10-20 01:43:00,47.1,41.5,29.86,East,90,1.0,5.0,81,0.00,,,0.00,WUHU216HW,2013-10-20 05:43:00,
2013-10-20 01:48:00,46.9,41.7,29.86,East,90,0.0,1.0,82,0.00,,,0.00,WUHU216HW,2013-10-20 05:48:00,
2013-10-20 01:54:00,46.7,41.7,29.86,East,90,0.0,0.0,82,0.00,,,0.00,WUHU216HW,2013-10-20 05:54:00,
2013-10-20 01:59:00,46.5,41.4,29.86,ESE,113,0.0,0.0,82,0.00,,,0.00,WUHU216HW,2013-10-20 05:59:00,
2013-10-20 02:04:00,46.5,41.4,29.86,SE,135,4.0,4.0,82,0.00,,,0.00,WUHU216HW,2013-10-20 06:04:00,
2013-10-20 02:09:00,46.5,41.4,29.86,SSW,203,0.0,4.0,82,0.00,,,0.00,WUHU216HW,2013-10-20 06:09:00,
2013-10-20 02:14:00,46.5,41.4,29.86,South,180,0.0,4.0,82,0.00,,,0.00,WUHU216HW,2013-10-20 06:14:00,
2013-10-20 02:19:00,46.5,41.7,29.86,ESE,113,0.0,0.0,83,0.00,,,0.00,WUHU216HW,2013-10-20 06:19:00,
2013-10-20 02:24:00,46.5,41.7,29.85,SE,135,0.0,1.0,83,0.00,,,0.00,WUHU216HW,2013-10-20 06:24:00,
2013-10-20 02:29:00,46.5,41.7,29.85,SE,135,0.0,1.0,83,0.00,,,0.00,WUHU216HW,2013-10-20 06:29:00,
2013-10-20 02:34:00,46.5,41.7,29.85,SSW,203,0.0,0.0,83,0.00,,,0.00,WUHU216HW,2013-10-20 06:34:00,
2013-10-20 02:39:00,46.5,41.7,29.85,SSW,203,0.0,0.0,83,0.00,,,0.00,WUHU216HW,2013-10-20 06:39:00,
2013-10-20 02:45:00,46.5,41.7,29.85,SSE,158,0.0,0.0,83,0.00,,,0.00,WUHU216HW,2013-10-20 06:45:00,
2013-10-20 02:50:00,46.4,41.5,29.85,SSE,158,0.0,0.0,83,0.00,,,0.00,WUHU216HW,2013-10-20 06:50:00,
2013-10-20 02:55:00,46.4,41.5,29.85,SSE,158,0.0,0.0,83,0.00,,,0.00,WUHU216HW,2013-10-20 06:55:00,
2013-10-20 03:00:00,46.5,41.7,29.85,SSE,158,0.0,2.0,83,0.00,,,0.00,WUHU216HW,2013-10-20 07:00:00,
2013-10-20 03:05:00,46.5,41.7,29.85,SSE,158,3.0,3.0,83,0.00,,,0.00,WUHU216HW,2013-10-20 07:05:00,
2013-10-20 03:10:00,46.5,41.7,29.85,SE,135,0.0,3.0,83,0.00,,,0.00,WUHU216HW,2013-10-20 07:10:00,
2013-10-20 03:15:00,46.5,41.7,29.85,SSE,158,0.0,0.0,83,0.00,,,0.00,WUHU216HW,2013-10-20 07:15:00,
2013-10-20 03:20:00,46.7,41.8,29.84,SSE,158,0.0,0.0,83,0.00,,,0.00,WUHU216HW,2013-10-20 07:20:00,
2013-10-20 03:25:00,46.5,41.7,29.84,SSE,158,0.0,0.0,83,0.00,,,0.00,WUHU216HW,2013-10-20 07:25:00,
2013-10-20 03:31:00,46.5,41.7,29.85,SSE,158,0.0,0.0,83,0.00,,,0.00,WUHU216HW,2013-10-20 07:31:00,
2013-10-20 03:36:00,46.5,41.7,29.84,SSE,158,0.0,0.0,83,0.00,,,0.00,WUHU216HW,2013-10-20 07:36:00,
2013-10-20 03:41:00,46.5,41.7,29.84,SSE,158,0.0,0.0,83,0.00,,,0.00,WUHU216HW,2013-10-20 07:41:00,
2013-10-20 03:46:00,46.2,41.3,29.85,SSE,158,0.0,0.0,83,0.00,,,0.00,WUHU216HW,2013-10-20 07:46:00,
2013-10-20 03:51:00,46.2,41.3,29.84,SE,135,0.0,0.0,83,0.00,,,0.00,WUHU216HW,2013-10-20 07:51:00,
2013-10-20 03:56:00,46.2,41.3,29.85,SSE,158,0.0,0.0,83,0.00,,,0.00,WUHU216HW,2013-10-20 07:56:00,
2013-10-20 04:01:00,46.2,41.3,29.85,SSE,158,0.0,0.0,83,0.00,,,0.00,WUHU216HW,2013-10-20 08:01:00,
2013-10-20 04:06:00,46.2,41.3,29.86,SSE,158,0.0,0.0,83,0.00,,,0.00,WUHU216HW,2013-10-20 08:06:00,
2013-10-20 04:11:00,46.2,41.3,29.86,SE,135,4.0,4.0,83,0.00,,,0.00,WUHU216HW,2013-10-20 08:11:00,
2013-10-20 04:17:00,46.4,41.8,29.86,SE,135,0.0,4.0,84,0.00,,,0.00,WUHU216HW,2013-10-20 08:17:00,
2013-10-20 04:22:00,46.5,42.0,29.86,SE,135,0.0,3.0,84,0.00,,,0.00,WUHU216HW,2013-10-20 08:22:00,
2013-10-20 04:27:00,46.5,42.0,29.86,SE,135,3.0,4.0,84,0.00,,,0.00,WUHU216HW,2013-10-20 08:27:00,
2013-10-20 04:32:00,46.7,42.1,29.85,South,180,5.0,5.0,84,0.00,,,0.00,WUHU216HW,2013-10-20 08:32:00,
2013-10-20 04:37:00,46.5,42.0,29.85,SE,135,0.0,5.0,84,0.00,,,0.00,WUHU216HW,2013-10-20 08:37:00,
2013-10-20 04:42:00,46.5,42.0,29.86,South,180,5.0,5.0,84,0.00,,,0.00,WUHU216HW,2013-10-20 08:42:00,
2013-10-20 04:47:00,46.2,41.3,29.86,South,180,7.0,7.0,83,0.00,,,0.00,WUHU216HW,2013-10-20 08:47:00,
2013-10-20 04:52:00,46.2,41.3,29.86,SE,135,3.0,7.0,83,0.00,,,0.00,WUHU216HW,2013-10-20 08:52:00,
2013-10-20 04:57:00,46.0,41.1,29.87,SE,135,0.0,3.0,83,0.00,,,0.00,WUHU216HW,2013-10-20 08:57:00,
2013-10-20 05:02:00,45.5,40.6,29.87,SE,135,0.0,0.0,83,0.00,,,0.00,WUHU216HW,2013-10-20 09:02:00,
2013-10-20 05:07:00,44.9,40.1,29.87,SE,135,0.0,0.0,83,0.00,,,0.00,WUHU216HW,2013-10-20 09:07:00,
2013-10-20 05:13:00,44.7,39.9,29.87,SE,135,0.0,3.0,83,0.00,,,0.00,WUHU216HW,2013-10-20 09:13:00,
2013-10-20 05:18:00,44.4,39.5,29.88,SSE,158,0.0,7.0,83,0.00,,,0.00,WUHU216HW,2013-10-20 09:18:00,
2013-10-20 05:23:00,44.4,39.5,29.88,SSE,158,0.0,7.0,83,0.00,,,0.00,WUHU216HW,2013-10-20 09:23:00,
2013-10-20 05:28:00,44.2,39.3,29.88,SSE,158,0.0,2.0,83,0.00,,,0.00,WUHU216HW,2013-10-20 09:28:00,
2013-10-20 05:33:00,43.8,39.0,29.88,SSE,158,0.0,2.0,83,0.00,,,0.00,WUHU216HW,2013-10-20 09:33:00,
2013-10-20 05:38:00,43.5,38.6,29.88,WSW,248,0.0,0.0,83,0.00,,,0.00,WUHU216HW,2013-10-20 09:38:00,
2013-10-20 05:43:00,43.3,38.4,29.88,SSE,158,0.0,0.0,83,0.00,,,0.00,WUHU216HW,2013-10-20 09:43:00,
2013-10-20 05:48:00,42.9,38.1,29.88,SE,135,3.0,4.0,83,0.00,,,0.00,WUHU216HW,2013-10-20 09:48:00,
2013-10-20 05:53:00,42.8,37.9,29.89,ESE,113,0.0,4.0,83,0.00,,,0.00,WUHU216HW,2013-10-20 09:53:00,
2013-10-20 05:58:00,42.6,37.7,29.89,ESE,113,0.0,4.0,83,0.00,,,0.00,WUHU216HW,2013-10-20 09:58:00,
2013-10-20 06:03:00,42.4,37.5,29.89,SE,135,0.0,0.0,83,0.00,,,0.00,WUHU216HW,2013-10-20 10:03:00,
2013-10-20 06:09:00,42.0,37.5,29.89,WSW,248,0.0,0.0,84,0.00,,,0.00,WUHU216HW,2013-10-20 10:09:00,
2013-10-20 06:14:00,41.9,37.3,29.89,ESE,113,0.0,0.0,84,0.00,,,0.00,WUHU216HW,2013-10-20 10:14:00,
2013-10-20 06:19:00,41.7,37.1,29.89,ESE,113,0.0,0.0,84,0.00,,,0.00,WUHU216HW,2013-10-20 10:19:00,
2013-10-20 06:24:00,41.5,36.6,29.89,ESE,113,0.0,0.0,83,0.00,,,0.00,WUHU216HW,2013-10-20 10:24:00,
2013-10-20 06:29:00,41.5,36.5,29.90,ESE,113,0.0,0.0,83,0.00,,,0.00,WUHU216HW,2013-10-20 10:29:00,
2013-10-20 06:34:00,41.3,36.5,29.90,East,90,0.0,0.0,83,0.00,,,0.00,WUHU216HW,2013-10-20 10:34:00,
2013-10-20 06:39:00,41.1,36.3,29.90,East,90,0.0,0.0,83,0.00,,,0.00,WUHU216HW,2013-10-20 10:39:00,
2013-10-20 06:44:00,41.1,36.3,29.90,East,90,0.0,0.0,83,0.00,,,0.00,WUHU216HW,2013-10-20 10:44:00,
2013-10-20 06:49:00,40.8,35.9,29.90,East,90,0.0,0.0,83,0.00,,,0.00,WUHU216HW,2013-10-20 10:49:00,
2013-10-20 06:54:00,40.8,35.9,29.91,East,90,0.0,0.0,83,0.00,,,0.00,WUHU216HW,2013-10-20 10:54:00,
2013-10-20 07:00:00,40.6,35.8,29.91,East,90,0.0,0.0,83,0.00,,,0.00,WUHU216HW,2013-10-20 11:00:00,
2013-10-20 07:05:00,40.6,36.1,29.91,East,90,0.0,0.0,84,0.00,,,0.00,WUHU216HW,2013-10-20 11:05:00,
2013-10-20 07:10:00,40.6,36.1,29.91,East,90,0.0,0.0,84,0.00,,,0.00,WUHU216HW,2013-10-20 11:10:00,
2013-10-20 07:15:00,40.8,36.2,29.91,East,90,0.0,0.0,84,0.00,,,0.00,WUHU216HW,2013-10-20 11:15:00,
2013-10-20 07:20:00,40.8,36.2,29.91,East,90,0.0,0.0,84,0.00,,,0.00,WUHU216HW,2013-10-20 11:20:00,
2013-10-20 07:25:00,40.8,36.2,29.92,East,90,0.0,0.0,84,0.00,,,0.00,WUHU216HW,2013-10-20 11:25:00,
2013-10-20 07:30:00,41.0,36.4,29.92,East,90,0.0,0.0,84,0.00,,,0.00,WUHU216HW,2013-10-20 11:30:00,
2013-10-20 07:35:00,41.1,36.6,29.92,East,90,0.0,0.0,84,0.00,,,0.00,WUHU216HW,2013-10-20 11:35:00,
2013-10-20 07:40:00,40.8,36.2,29.93,East,90,0.0,0.0,84,0.00,,,0.00,WUHU216HW,2013-10-20 11:40:00,
2013-10-20 07:45:00,40.8,36.2,29.93,East,90,0.0,0.0,84,0.00,,,0.00,WUHU216HW,2013-10-20 11:45:00,
2013-10-20 07:50:00,40.8,36.2,29.93,East,90,0.0,0.0,84,0.00,,,0.00,WUHU216HW,2013-10-20 11:50:00,
2013-10-20 07:55:00,40.6,36.1,29.93,SSE,158,0.0,1.0,84,0.00,,,0.00,WUHU216HW,2013-10-20 11:55:00,
2013-10-20 08:00:00,40.8,36.2,29.94,SSE,158,0.0,1.0,84,0.00,,,0.00,WUHU216HW,2013-10-20 12:00:00,
2013-10-20 08:05:00,40.8,36.2,29.94,SSE,158,0.0,0.0,84,0.00,,,0.00,WUHU216HW,2013-10-20 12:05:00,
2013-10-20 08:11:00,41.0,36.7,29.94,SW,225,0.0,3.0,85,0.00,,,0.00,WUHU216HW,2013-10-20 12:11:00,
2013-10-20 08:16:00,41.3,37.1,29.94,SW,225,0.0,3.0,85,0.00,,,0.00,WUHU216HW,2013-10-20 12:16:00,
2013-10-20 08:21:00,41.5,37.3,29.95,West,270,1.0,2.0,85,0.00,,,0.00,WUHU216HW,2013-10-20 12:21:00,
2013-10-20 08:26:00,42.4,38.2,29.95,NNE,23,2.0,3.0,85,0.00,,,0.00,WUHU216HW,2013-10-20 12:26:00,
2013-10-20 08:31:00,42.9,38.7,29.96,NW,319,4.0,4.0,85,0.00,,,0.00,WUHU216HW,2013-10-20 12:31:00,
2013-10-20 08:36:00,43.7,38.9,29.96,WSW,250,5.0,6.0,84,0.00,,,0.00,WUHU216HW,2013-10-20 12:36:00,
2013-10-20 08:41:00,44.7,39.1,29.97,ESE,113,2.0,6.0,81,0.00,,,0.00,WUHU216HW,2013-10-20 12:41:00,
2013-10-20 08:46:00,45.3,39.5,29.97,SW,225,8.0,8.0,80,0.00,,,0.00,WUHU216HW,2013-10-20 12:46:00,
2013-10-20 08:51:00,45.6,39.5,29.97,NNE,23,2.0,8.0,79,0.00,,,0.00,WUHU216HW,2013-10-20 12:51:00,
2013-10-20 08:57:00,46.2,39.0,29.97,East,90,5.0,6.0,76,0.00,,,0.00,WUHU216HW,2013-10-20 12:57:00,
2013-10-20 09:02:00,46.5,39.4,29.97,SSW,203,2.0,6.0,76,0.00,,,0.00,WUHU216HW,2013-10-20 13:02:00,
2013-10-20 09:07:00,47.1,39.5,29.97,NW,318,3.0,5.0,75,0.00,,,0.00,WUHU216HW,2013-10-20 13:07:00,
2013-10-20 09:12:00,47.4,39.5,29.97,SW,216,1.0,7.0,74,0.00,,,0.00,WUHU216HW,2013-10-20 13:12:00,
2013-10-20 09:17:00,48.0,39.7,29.98,North,0,3.0,7.0,73,0.00,,,0.00,WUHU216HW,2013-10-20 13:17:00,
2013-10-20 09:22:00,48.0,39.0,29.98,NE,39,4.0,5.0,71,0.00,,,0.00,WUHU216HW,2013-10-20 13:22:00,
2013-10-20 09:27:00,48.5,39.2,29.99,SSW,203,6.0,6.0,70,0.00,,,0.00,WUHU216HW,2013-10-20 13:27:00,
2013-10-20 09:32:00,48.7,38.9,29.99,SE,128,6.0,11.0,69,0.00,,,0.00,WUHU216HW,2013-10-20 13:32:00,
2013-10-20 09:37:00,49.1,38.9,29.99,SSW,203,0.0,11.0,68,0.00,,,0.00,WUHU216HW,2013-10-20 13:37:00,
2013-10-20 09:42:00,49.2,39.1,29.99,NE,45,3.0,8.0,68,0.00,,,0.00,WUHU216HW,2013-10-20 13:42:00,
2013-10-20 09:47:00,49.2,38.7,29.99,SW,222,3.0,10.0,67,0.00,,,0.00,WUHU216HW,2013-10-20 13:47:00,
2013-10-20 09:52:00,49.8,38.4,29.99,NNW,331,4.0,10.0,65,0.00,,,0.00,WUHU216HW,2013-10-20 13:52:00,
2013-10-20 09:58:00,50.1,38.8,30.00,NNW,338,2.0,6.0,65,0.00,,,0.00,WUHU216HW,2013-10-20 13:58:00,
2013-10-20 10:03:00,50.7,39.3,30.00,ENE,68,3.0,7.0,65,0.00,,,0.00,WUHU216HW,2013-10-20 14:03:00,
2013-10-20 10:08:00,51.4,40.0,30.00,NW,315,4.0,7.0,65,0.00,,,0.00,WUHU216HW,2013-10-20 14:08:00,
2013-10-20 10:13:00,51.8,39.5,30.00,NNW,338,7.0,9.0,63,0.00,,,0.00,WUHU216HW,2013-10-20 14:13:00,
2013-10-20 10:18:00,51.9,39.2,30.00,North,0,8.0,9.0,62,0.00,,,0.00,WUHU216HW,2013-10-20 14:18:00,
2013-10-20 10:23:00,51.9,38.8,30.01,NW,315,3.0,8.0,61,0.00,,,0.00,WUHU216HW,2013-10-20 14:23:00,
2013-10-20 10:28:00,51.6,38.1,30.00,NE,45,5.0,6.0,60,0.00,,,0.00,WUHU216HW,2013-10-20 14:28:00,
2013-10-20 10:33:00,51.9,38.8,30.01,NE,45,7.0,7.0,61,0.00,,,0.00,WUHU216HW,2013-10-20 14:33:00,
2013-10-20 10:38:00,52.3,38.8,30.01,ENE,68,0.0,7.0,60,0.00,,,0.00,WUHU216HW,2013-10-20 14:38:00,
2013-10-20 10:43:00,52.3,38.3,30.00,NW,315,0.0,8.0,59,0.00,,,0.00,WUHU216HW,2013-10-20 14:43:00,
2013-10-20 10:48:00,52.1,38.1,30.01,NE,45,0.0,8.0,59,0.00,,,0.00,WUHU216HW,2013-10-20 14:48:00,
2013-10-20 10:53:00,52.3,38.3,30.01,East,90,4.0,7.0,59,0.00,,,0.00,WUHU216HW,2013-10-20 14:53:00,
2013-10-20 10:58:00,52.8,39.3,30.01,SSW,203,0.0,6.0,60,0.00,,,0.00,WUHU216HW,2013-10-20 14:58:00,
2013-10-20 11:04:00,53.4,38.9,30.01,West,270,8.0,9.0,58,0.00,,,0.00,WUHU216HW,2013-10-20 15:04:00,
2013-10-20 11:09:00,53.2,38.3,30.01,WNW,293,6.0,9.0,57,0.00,,,0.00,WUHU216HW,2013-10-20 15:09:00,
2013-10-20 11:14:00,53.4,38.5,30.01,South,180,0.0,7.0,57,0.00,,,0.00,WUHU216HW,2013-10-20 15:14:00,
2013-10-20 11:19:00,54.3,39.3,30.01,North,0,4.0,4.0,57,0.00,,,0.00,WUHU216HW,2013-10-20 15:19:00,
2013-10-20 11:24:00,54.3,38.8,30.02,West,270,4.0,4.0,56,0.00,,,0.00,WUHU216HW,2013-10-20 15:24:00,
2013-10-20 11:29:00,54.5,39.0,30.02,NE,45,6.0,8.0,56,0.00,,,0.00,WUHU216HW,2013-10-20 15:29:00,
2013-10-20 11:34:00,54.5,38.1,30.02,WNW,293,2.0,8.0,54,0.00,,,0.00,WUHU216HW,2013-10-20 15:34:00,
2013-10-20 11:39:00,54.6,38.2,30.02,ENE,68,7.0,7.0,54,0.00,,,0.00,WUHU216HW,2013-10-20 15:39:00,
2013-10-20 11:44:00,54.3,37.9,30.02,SSE,158,0.0,15.0,54,0.00,,,0.00,WUHU216HW,2013-10-20 15:44:00,
2013-10-20 11:49:00,53.7,37.4,30.02,SSW,203,7.0,15.0,54,0.00,,,0.00,WUHU216HW,2013-10-20 15:49:00,
2013-10-20 11:54:00,53.4,37.1,30.03,NW,315,6.0,7.0,54,0.00,,,0.00,WUHU216HW,2013-10-20 15:54:00,
2013-10-20 11:59:00,53.4,37.5,30.03,NE,45,0.0,7.0,55,0.00,,,0.00,WUHU216HW,2013-10-20 15:59:00,
2013-10-20 12:04:00,53.2,37.4,30.02,NNE,23,0.0,7.0,55,0.00,,,0.00,WUHU216HW,2013-10-20 16:04:00,
2013-10-20 12:10:00,52.8,37.0,30.03,SSW,203,11.0,11.0,55,0.00,,,0.00,WUHU216HW,2013-10-20 16:10:00,
2013-10-20 12:15:00,52.8,37.5,30.03,SE,135,4.0,11.0,56,0.00,,,0.00,WUHU216HW,2013-10-20 16:15:00,
2013-10-20 12:20:00,53.4,38.0,30.02,NNE,23,4.0,4.0,56,0.00,,,0.00,WUHU216HW,2013-10-20 16:20:00,
2013-10-20 12:25:00,54.1,38.7,30.02,NW,321,6.0,7.0,56,0.00,,,0.00,WUHU216HW,2013-10-20 16:25:00,
2013-10-20 12:30:00,54.6,38.7,30.02,ENE,68,0.0,7.0,55,0.00,,,0.00,WUHU216HW,2013-10-20 16:30:00,
2013-10-20 12:35:00,55.5,39.0,30.03,ENE,68,6.0,6.0,54,0.00,,,0.00,WUHU216HW,2013-10-20 16:35:00,
2013-10-20 12:38:00,55.9,38.9,30.02,WNW,302,8.0,9.0,53,0.00,,,0.00,WUHU216HW,2013-10-20 16:38:00,
2013-10-20 12:43:00,55.9,38.9,30.03,South,180,5.0,9.0,53,0.00,,,0.00,WUHU216HW,2013-10-20 16:43:00,
2013-10-20 12:48:00,55.7,38.3,30.03,NNE,23,3.0,5.0,52,0.00,,,0.00,WUHU216HW,2013-10-20 16:48:00,
2013-10-20 12:53:00,55.5,38.1,30.02,SSE,160,5.0,6.0,52,0.00,,,0.00,WUHU216HW,2013-10-20 16:53:00,
2013-10-20 12:59:00,54.6,37.3,30.03,South,180,0.0,12.0,52,0.00,,,0.00,WUHU216HW,2013-10-20 16:59:00,
2013-10-20 13:04:00,54.1,36.8,30.02,SE,135,0.0,12.0,52,0.00,,,0.00,WUHU216HW,2013-10-20 17:04:00,
2013-10-20 13:09:00,53.7,36.9,30.03,North,0,0.0,10.0,53,0.00,,,0.00,WUHU216HW,2013-10-20 17:09:00,
2013-10-20 13:14:00,53.2,36.4,30.03,NW,315,1.0,10.0,53,0.00,,,0.00,WUHU216HW,2013-10-20 17:14:00,
2013-10-20 13:19:00,53.2,36.9,30.03,East,90,2.0,7.0,54,0.00,,,0.00,WUHU216HW,2013-10-20 17:19:00,
2013-10-20 13:24:00,53.7,37.9,30.03,NNE,23,0.0,7.0,55,0.00,,,0.00,WUHU216HW,2013-10-20 17:24:00,
2013-10-20 13:29:00,54.1,37.7,30.03,WSW,248,4.0,4.0,54,0.00,,,0.00,WUHU216HW,2013-10-20 17:29:00,
2013-10-20 13:34:00,54.5,37.6,30.03,WSW,248,3.0,7.0,53,0.00,,,0.00,WUHU216HW,2013-10-20 17:34:00,
2013-10-20 13:39:00,55.2,38.7,30.03,ESE,113,2.0,7.0,54,0.00,,,0.00,WUHU216HW,2013-10-20 17:39:00,
2013-10-20 13:44:00,55.7,38.3,30.03,NE,45,0.0,8.0,52,0.00,,,0.00,WUHU216HW,2013-10-20 17:44:00,
2013-10-20 13:49:00,55.2,37.3,30.04,North,0,4.0,8.0,51,0.00,,,0.00,WUHU216HW,2013-10-20 17:49:00,
2013-10-20 13:55:00,54.5,36.6,30.04,NW,315,2.0,6.0,51,0.00,,,0.00,WUHU216HW,2013-10-20 17:55:00,
2013-10-20 14:00:00,53.7,36.0,30.04,ENE,68,2.0,4.0,51,0.00,,,0.00,WUHU216HW,2013-10-20 18:00:00,
2013-10-20 14:05:00,53.2,36.0,30.04,ESE,113,0.0,4.0,52,0.00,,,0.00,WUHU216HW,2013-10-20 18:05:00,
2013-10-20 14:10:00,52.8,35.6,30.04,WSW,248,12.0,12.0,52,0.00,,,0.00,WUHU216HW,2013-10-20 18:10:00,
2013-10-20 14:15:00,52.8,36.1,30.04,North,0,5.0,12.0,53,0.00,,,0.00,WUHU216HW,2013-10-20 18:15:00,
2013-10-20 14:20:00,53.0,36.3,30.05,East,90,3.0,7.0,53,0.00,,,0.00,WUHU216HW,2013-10-20 18:20:00,
2013-10-20 14:25:00,53.4,36.1,30.05,WSW,248,8.0,8.0,53,0.00,,,0.00,WUHU216HW,2013-10-20 18:25:00,
2013-10-20 14:30:00,53.4,36.1,30.05,WSW,248,2.0,9.0,52,0.00,,,0.00,WUHU216HW,2013-10-20 18:30:00,
2013-10-20 14:35:00,53.4,36.1,30.05,North,0,6.0,9.0,52,0.00,,,0.00,WUHU216HW,2013-10-20 18:35:00,
2013-10-20 14:40:00,52.8,35.6,30.05,WSW,248,0.0,8.0,52,0.00,,,0.00,WUHU216HW,2013-10-20 18:40:00,
2013-10-20 14:45:00,52.8,35.6,30.05,WSW,248,7.0,8.0,52,0.00,,,0.00,WUHU216HW,2013-10-20 18:45:00,
2013-10-20 14:50:00,53.2,36.0,30.05,ENE,68,0.0,8.0,52,0.00,,,0.00,WUHU216HW,2013-10-20 18:50:00,
2013-10-20 14:56:00,53.4,35.7,30.05,WSW,248,0.0,8.0,51,0.00,,,0.00,WUHU216HW,2013-10-20 18:56:00,
2013-10-20 15:01:00,53.4,35.7,30.05,WSW,248,2.0,3.0,51,0.00,,,0.00,WUHU216HW,2013-10-20 19:01:00,
2013-10-20 15:06:00,53.7,36.0,30.05,WSW,248,2.0,4.0,51,0.00,,,0.00,WUHU216HW,2013-10-20 19:06:00,
2013-10-20 15:11:00,53.9,36.2,30.05,WSW,248,3.0,7.0,51,0.00,,,0.00,WUHU216HW,2013-10-20 19:11:00,
2013-10-20 15:16:00,53.7,36.2,30.05,WSW,248,4.0,7.0,51,0.00,,,0.00,WUHU216HW,2013-10-20 19:16:00,
2013-10-20 15:21:00,53.9,35.7,30.06,WSW,248,4.0,4.0,50,0.00,,,0.00,WUHU216HW,2013-10-20 19:21:00,
2013-10-20 15:26:00,53.9,35.7,30.06,WSW,248,0.0,4.0,50,0.00,,,0.00,WUHU216HW,2013-10-20 19:26:00,
2013-10-20 15:31:00,53.7,35.5,30.06,WSW,248,0.0,6.0,50,0.00,,,0.00,WUHU216HW,2013-10-20 19:31:00,
2013-10-20 15:36:00,53.6,35.4,30.06,WSW,248,3.0,12.0,50,0.00,,,0.00,WUHU216HW,2013-10-20 19:36:00,
2013-10-20 15:41:00,53.4,35.7,30.06,SE,135,5.0,12.0,51,0.00,,,0.00,WUHU216HW,2013-10-20 19:41:00,
2013-10-20 15:47:00,53.2,35.0,30.07,WSW,248,0.0,15.0,50,0.00,,,0.00,WUHU216HW,2013-10-20 19:47:00,
2013-10-20 15:52:00,53.0,34.9,30.06,SW,225,11.0,15.0,50,0.00,,,0.00,WUHU216HW,2013-10-20 19:52:00,
2013-10-20 15:57:00,52.8,34.7,30.07,SSW,203,3.0,11.0,50,0.00,,,0.00,WUHU216HW,2013-10-20 19:57:00,
2013-10-20 16:02:00,52.7,35.0,30.07,NNE,23,0.0,8.0,51,0.00,,,0.00,WUHU216HW,2013-10-20 20:02:00,
2013-10-20 16:07:00,52.7,35.0,30.07,SSE,158,5.0,5.0,51,0.00,,,0.00,WUHU216HW,2013-10-20 20:07:00,
2013-10-20 16:12:00,52.5,34.4,30.07,NNW,338,8.0,8.0,50,0.00,,,0.00,WUHU216HW,2013-10-20 20:12:00,
2013-10-20 16:17:00,52.1,34.1,30.07,SE,142,2.0,8.0,51,0.00,,,0.00,WUHU216HW,2013-10-20 20:17:00,
2013-10-20 16:22:00,51.8,34.2,30.07,SSE,158,0.0,8.0,51,0.00,,,0.00,WUHU216HW,2013-10-20 20:22:00,
2013-10-20 16:27:00,51.6,34.0,30.07,NW,315,7.0,7.0,51,0.00,,,0.00,WUHU216HW,2013-10-20 20:27:00,
2013-10-20 16:33:00,51.4,33.9,30.07,South,180,0.0,7.0,51,0.00,,,0.00,WUHU216HW,2013-10-20 20:33:00,
2013-10-20 16:38:00,51.0,34.0,30.07,West,270,0.0,0.0,52,0.00,,,0.00,WUHU216HW,2013-10-20 20:38:00,
2013-10-20 16:43:00,50.7,33.7,30.07,SE,135,0.0,7.0,52,0.00,,,0.00,WUHU216HW,2013-10-20 20:43:00,
2013-10-20 16:48:00,50.5,34.0,30.07,NE,45,0.0,7.0,53,0.00,,,0.00,WUHU216HW,2013-10-20 20:48:00,
2013-10-20 16:53:00,50.3,33.8,30.07,SSE,158,8.0,8.0,53,0.00,,,0.00,WUHU216HW,2013-10-20 20:53:00,
2013-10-20 16:58:00,50.1,33.6,30.08,SE,135,0.0,8.0,53,0.00,,,0.00,WUHU216HW,2013-10-20 20:58:00,
2013-10-20 17:03:00,49.8,33.8,30.08,SE,135,1.0,3.0,54,0.00,,,0.00,WUHU216HW,2013-10-20 21:03:00,
2013-10-20 17:08:00,49.8,33.8,30.08,SW,225,0.0,3.0,54,0.00,,,0.00,WUHU216HW,2013-10-20 21:08:00,
2013-10-20 17:13:00,49.6,33.6,30.08,North,0,4.0,4.0,54,0.00,,,0.00,WUHU216HW,2013-10-20 21:13:00,
2013-10-20 17:18:00,49.4,33.4,30.08,SW,225,0.0,4.0,54,0.00,,,0.00,WUHU216HW,2013-10-20 21:18:00,
2013-10-20 17:23:00,49.2,33.7,30.08,WSW,248,5.0,5.0,55,0.00,,,0.00,WUHU216HW,2013-10-20 21:23:00,
2013-10-20 17:28:00,49.1,33.5,30.08,SSW,203,0.0,6.0,55,0.00,,,0.00,WUHU216HW,2013-10-20 21:28:00,
2013-10-20 17:34:00,48.7,33.6,30.09,ESE,113,0.0,6.0,56,0.00,,,0.00,WUHU216HW,2013-10-20 21:34:00,
2013-10-20 17:39:00,48.3,33.3,30.09,ESE,113,0.0,0.0,56,0.00,,,0.00,WUHU216HW,2013-10-20 21:39:00,
2013-10-20 17:44:00,48.0,33.4,30.09,ESE,113,0.0,0.0,57,0.00,,,0.00,WUHU216HW,2013-10-20 21:44:00,
2013-10-20 17:49:00,47.6,33.5,30.09,NE,45,0.0,0.0,58,0.00,,,0.00,WUHU216HW,2013-10-20 21:49:00,
2013-10-20 17:54:00,47.3,33.2,30.09,SSW,203,0.0,6.0,58,0.00,,,0.00,WUHU216HW,2013-10-20 21:54:00,
2013-10-20 17:59:00,47.1,33.0,30.09,SW,225,0.0,6.0,58,0.00,,,0.00,WUHU216HW,2013-10-20 21:59:00,
2013-10-20 18:04:00,46.9,32.8,30.09,WNW,293,0.0,0.0,58,0.00,,,0.00,WUHU216HW,2013-10-20 22:04:00,
2013-10-20 18:09:00,46.7,33.1,30.09,NW,315,0.0,0.0,59,0.00,,,0.00,WUHU216HW,2013-10-20 22:09:00,
2013-10-20 18:15:00,46.5,32.9,30.09,ESE,113,0.0,0.0,59,0.00,,,0.00,WUHU216HW,2013-10-20 22:15:00,
2013-10-20 18:20:00,46.2,32.6,30.09,ESE,113,0.0,0.0,59,0.00,,,0.00,WUHU216HW,2013-10-20 22:20:00,
2013-10-20 18:25:00,46.0,32.9,30.10,SSE,158,0.0,0.0,60,0.00,,,0.00,WUHU216HW,2013-10-20 22:25:00,
2013-10-20 18:30:00,45.6,32.9,30.10,West,270,0.0,0.0,61,0.00,,,0.00,WUHU216HW,2013-10-20 22:30:00,
2013-10-20 18:35:00,45.3,32.6,30.11,ENE,68,0.0,0.0,61,0.00,,,0.00,WUHU216HW,2013-10-20 22:35:00,
2013-10-20 18:40:00,45.1,32.5,30.11,SSW,203,0.0,0.0,61,0.00,,,0.00,WUHU216HW,2013-10-20 22:40:00,
2013-10-20 18:45:00,45.1,32.8,30.11,SSW,203,0.0,0.0,62,0.00,,,0.00,WUHU216HW,2013-10-20 22:45:00,
2013-10-20 18:50:00,44.9,32.7,30.11,SSW,203,0.0,0.0,62,0.00,,,0.00,WUHU216HW,2013-10-20 22:50:00,
2013-10-20 18:55:00,44.6,32.3,30.11,SSW,203,0.0,0.0,62,0.00,,,0.00,WUHU216HW,2013-10-20 22:55:00,
2013-10-20 19:00:00,44.4,32.5,30.11,SSW,203,0.0,0.0,63,0.00,,,0.00,WUHU216HW,2013-10-20 23:00:00,
2013-10-20 19:05:00,44.2,32.4,30.12,SSW,203,0.0,0.0,63,0.00,,,0.00,WUHU216HW,2013-10-20 23:05:00,
2013-10-20 19:11:00,43.8,32.4,30.12,SSW,203,0.0,0.0,64,0.00,,,0.00,WUHU216HW,2013-10-20 23:11:00,
2013-10-20 19:16:00,43.5,32.1,30.12,SSW,203,0.0,0.0,64,0.00,,,0.00,WUHU216HW,2013-10-20 23:16:00,
2013-10-20 19:21:00,43.3,32.1,30.12,SSW,203,0.0,0.0,65,0.00,,,0.00,WUHU216HW,2013-10-20 23:21:00,
2013-10-20 19:26:00,42.9,31.9,30.12,SSW,203,0.0,0.0,65,0.00,,,0.00,WUHU216HW,2013-10-20 23:26:00,
2013-10-20 19:31:00,42.6,32.0,30.13,SSW,203,0.0,0.0,66,0.00,,,0.00,WUHU216HW,2013-10-20 23:31:00,
2013-10-20 19:36:00,42.6,32.0,30.13,SSW,203,0.0,0.0,66,0.00,,,0.00,WUHU216HW,2013-10-20 23:36:00,
2013-10-20 19:41:00,42.4,32.2,30.13,SSW,203,0.0,0.0,67,0.00,,,0.00,WUHU216HW,2013-10-20 23:41:00,
2013-10-20 19:46:00,42.0,31.9,30.13,West,270,0.0,2.0,67,0.00,,,0.00,WUHU216HW,2013-10-20 23:46:00,
2013-10-20 19:52:00,42.0,31.9,30.13,West,270,0.0,2.0,67,0.00,,,0.00,WUHU216HW,2013-10-20 23:52:00,
2013-10-20 19:57:00,41.7,31.5,30.14,West,270,0.0,0.0,67,0.00,,,0.00,WUHU216HW,2013-10-20 23:57:00,
2013-10-20 20:02:00,41.5,31.3,30.14,West,270,0.0,0.0,67,0.00,,,0.00,WUHU216HW,2013-10-21 00:02:00,
2013-10-20 20:07:00,41.1,31.4,30.14,West,270,0.0,0.0,68,0.00,,,0.00,WUHU216HW,2013-10-21 00:07:00,
2013-10-20 20:12:00,41.1,31.4,30.14,ENE,68,0.0,0.0,68,0.00,,,0.00,WUHU216HW,2013-10-21 00:12:00,
2013-10-20 20:17:00,41.0,31.2,30.14,WSW,248,0.0,0.0,68,0.00,,,0.00,WUHU216HW,2013-10-21 00:17:00,
2013-10-20 20:22:00,40.8,31.4,30.14,WSW,248,0.0,0.0,69,0.00,,,0.00,WUHU216HW,2013-10-21 00:22:00,
2013-10-20 20:27:00,40.8,31.4,30.15,WSW,248,0.0,0.0,69,0.00,,,0.00,WUHU216HW,2013-10-21 00:27:00,
2013-10-20 20:32:00,40.8,31.4,30.14,SE,135,0.0,0.0,69,0.00,,,0.00,WUHU216HW,2013-10-21 00:32:00,
2013-10-20 20:37:00,40.8,31.8,30.15,SE,135,0.0,0.0,70,0.00,,,0.00,WUHU216HW,2013-10-21 00:37:00,
2013-10-20 20:42:00,40.8,31.8,30.15,SE,135,0.0,0.0,70,0.00,,,0.00,WUHU216HW,2013-10-21 00:42:00,
2013-10-20 20:48:00,40.8,31.8,30.15,SSE,158,0.0,0.0,70,0.00,,,0.00,WUHU216HW,2013-10-21 00:48:00,
2013-10-20 20:53:00,41.0,32.0,30.15,SSE,158,0.0,0.0,70,0.00,,,0.00,WUHU216HW,2013-10-21 00:53:00,
2013-10-20 20:58:00,41.0,32.0,30.15,SSE,158,0.0,0.0,70,0.00,,,0.00,WUHU216HW,2013-10-21 00:58:00,
2013-10-20 21:03:00,41.1,32.1,30.15,SSE,158,0.0,0.0,70,0.00,,,0.00,WUHU216HW,2013-10-21 01:03:00,
2013-10-20 21:08:00,41.0,32.0,30.15,SSE,158,0.0,0.0,70,0.00,,,0.00,WUHU216HW,2013-10-21 01:08:00,
2013-10-20 21:13:00,40.8,31.8,30.16,SSE,158,0.0,0.0,70,0.00,,,0.00,WUHU216HW,2013-10-21 01:13:00,
2013-10-20 21:18:00,40.8,31.8,30.16,SSE,158,0.0,0.0,70,0.00,,,0.00,WUHU216HW,2013-10-21 01:18:00,
2013-10-20 21:23:00,40.8,31.8,30.16,SSE,158,0.0,0.0,70,0.00,,,0.00,WUHU216HW,2013-10-21 01:23:00,
2013-10-20 21:28:00,40.6,31.6,30.16,SSE,158,0.0,0.0,70,0.00,,,0.00,WUHU216HW,2013-10-21 01:28:00,
2013-10-20 21:33:00,40.6,31.6,30.16,SSE,158,0.0,0.0,70,0.00,,,0.00,WUHU216HW,2013-10-21 01:33:00,
2013-10-20 21:38:00,40.4,31.4,30.16,SSE,158,0.0,0.0,70,0.00,,,0.00,WUHU216HW,2013-10-21 01:38:00,
2013-10-20 21:44:00,40.2,31.2,30.17,SSE,158,0.0,0.0,70,0.00,,,0.00,WUHU216HW,2013-10-21 01:44:00,
2013-10-20 21:49:00,40.1,31.1,30.17,SSE,158,0.0,0.0,70,0.00,,,0.00,WUHU216HW,2013-10-21 01:49:00,
2013-10-20 21:54:00,39.9,31.2,30.17,SSE,158,0.0,0.0,71,0.00,,,0.00,WUHU216HW,2013-10-21 01:54:00,
2013-10-20 21:59:00,39.9,31.0,30.17,SSE,158,0.0,0.0,71,0.00,,,0.00,WUHU216HW,2013-10-21 01:59:00,
2013-10-20 22:04:00,39.7,31.4,30.17,SSE,158,0.0,0.0,72,0.00,,,0.00,WUHU216HW,2013-10-21 02:04:00,
2013-10-20 22:09:00,39.5,31.2,30.17,SSE,158,0.0,0.0,72,0.00,,,0.00,WUHU216HW,2013-10-21 02:09:00,
2013-10-20 22:15:00,39.5,31.2,30.17,SSE,158,0.0,0.0,72,0.00,,,0.00,WUHU216HW,2013-10-21 02:15:00,
2013-10-20 22:20:00,39.3,31.0,30.17,SSE,158,0.0,0.0,72,0.00,,,0.00,WUHU216HW,2013-10-21 02:20:00,
2013-10-20 22:25:00,39.2,30.8,30.17,SSE,158,0.0,0.0,72,0.00,,,0.00,WUHU216HW,2013-10-21 02:25:00,
2013-10-20 22:30:00,38.8,30.5,30.17,SSE,158,0.0,0.0,72,0.00,,,0.00,WUHU216HW,2013-10-21 02:30:00,
2013-10-20 22:35:00,38.4,30.2,30.18,SSE,158,0.0,0.0,72,0.00,,,0.00,WUHU216HW,2013-10-21 02:35:00,
2013-10-20 22:40:00,38.3,30.0,30.18,SSE,158,0.0,0.0,72,0.00,,,0.00,WUHU216HW,2013-10-21 02:40:00,
2013-10-20 22:45:00,38.1,30.0,30.18,SSE,158,0.0,0.0,73,0.00,,,0.00,WUHU216HW,2013-10-21 02:45:00,
2013-10-20 22:50:00,37.7,30.0,30.18,SSE,158,0.0,0.0,73,0.00,,,0.00,WUHU216HW,2013-10-21 02:50:00,
2013-10-20 22:55:00,37.5,29.7,30.18,SSE,158,0.0,0.0,73,0.00,,,0.00,WUHU216HW,2013-10-21 02:55:00,
2013-10-20 23:00:00,37.2,29.3,30.18,SSE,158,0.0,0.0,73,0.00,,,0.00,WUHU216HW,2013-10-21 03:00:00,
2013-10-20 23:06:00,37.0,29.5,30.18,SSE,158,0.0,0.0,74,0.00,,,0.00,WUHU216HW,2013-10-21 03:06:00,
2013-10-20 23:11:00,36.6,29.1,30.18,SSE,158,0.0,0.0,74,0.00,,,0.00,WUHU216HW,2013-10-21 03:11:00,
2013-10-20 23:16:00,36.3,28.7,30.18,SSE,158,0.0,0.0,74,0.00,,,0.00,WUHU216HW,2013-10-21 03:16:00,
2013-10-20 23:21:00,36.1,28.6,30.18,SSE,158,0.0,0.0,74,0.00,,,0.00,WUHU216HW,2013-10-21 03:21:00,
2013-10-20 23:26:00,35.9,28.4,30.18,SSE,158,0.0,0.0,74,0.00,,,0.00,WUHU216HW,2013-10-21 03:26:00,
2013-10-20 23:31:00,35.7,28.5,30.19,SSE,158,0.0,0.0,75,0.00,,,0.00,WUHU216HW,2013-10-21 03:31:00,
2013-10-20 23:36:00,35.7,28.5,30.18,SSE,158,0.0,0.0,75,0.00,,,0.00,WUHU216HW,2013-10-21 03:36:00,
2013-10-20 23:41:00,35.7,28.5,30.19,SSE,158,0.0,0.0,75,0.00,,,0.00,WUHU216HW,2013-10-21 03:41:00,
2013-10-20 23:47:00,35.4,28.5,30.19,SSE,158,0.0,0.0,76,0.00,,,0.00,WUHU216HW,2013-10-21 03:47:00,
2013-10-20 23:52:00,35.2,28.0,30.19,SSE,158,0.0,0.0,75,0.00,,,0.00,WUHU216HW,2013-10-21 03:52:00,
2013-10-20 23:57:00,34.8,28.0,30.19,SSE,158,0.0,0.0,76,0.00,,,0.00,WUHU216HW,2013-10-21 03:57:00,